sensor_id;sensor_type;location;lat;lon;timestamp;P1;durP1;ratioP1;P2;durP2;ratioP2
46266;SDS011;31998;48.798;15.066;2022-12-07T00:01:39;39.33;;;16.07;;
46266;SDS011;31998;48.798;15.066;2022-12-07T00:04:06;36.43;;;16.07;;
46266;SDS011;31998;48.798;15.066;2022-12-07T00:06:36;48.33;;;19.10;;
46266;SDS011;31998;48.798;15.066;2022-12-07T00:09:11;31.00;;;15.30;;
46266;SDS011;31998;48.798;15.066;2022-12-07T00:11:38;30.00;;;15.30;;
46266;SDS011;31998;48.798;15.066;2022-12-07T00:14:05;43.93;;;15.90;;
46266;SDS011;31998;48.798;15.066;2022-12-07T00:16:34;37.97;;;13.57;;
46266;SDS011;31998;48.798;15.066;2022-12-07T00:19:00;36.70;;;15.50;;
46266;SDS011;31998;48.798;15.066;2022-12-07T00:21:28;32.10;;;15.27;;
46266;SDS011;31998;48.798;15.066;2022-12-07T00:23:58;28.93;;;14.00;;
46266;SDS011;31998;48.798;15.066;2022-12-07T00:26:25;25.67;;;13.87;;
46266;SDS011;31998;48.798;15.066;2022-12-07T00:28:56;27.37;;;14.47;;
46266;SDS011;31998;48.798;15.066;2022-12-07T00:31:24;33.10;;;16.07;;
46266;SDS011;31998;48.798;15.066;2022-12-07T00:33:54;26.27;;;13.23;;
46266;SDS011;31998;48.798;15.066;2022-12-07T00:36:21;29.90;;;13.40;;
46266;SDS011;31998;48.798;15.066;2022-12-07T00:38:47;21.67;;;12.53;;
46266;SDS011;31998;48.798;15.066;2022-12-07T00:41:14;25.70;;;13.70;;
46266;SDS011;31998;48.798;15.066;2022-12-07T00:43:44;21.07;;;11.67;;
46266;SDS011;31998;48.798;15.066;2022-12-07T00:46:11;19.53;;;11.60;;
46266;SDS011;31998;48.798;15.066;2022-12-07T00:48:38;24.47;;;11.40;;
46266;SDS011;31998;48.798;15.066;2022-12-07T00:51:04;22.77;;;11.87;;
46266;SDS011;31998;48.798;15.066;2022-12-07T00:53:30;17.33;;;9.50;;
46266;SDS011;31998;48.798;15.066;2022-12-07T00:55:56;31.87;;;11.80;;
46266;SDS011;31998;48.798;15.066;2022-12-07T00:58:22;18.10;;;10.53;;
46266;SDS011;31998;48.798;15.066;2022-12-07T01:00:48;20.57;;;10.33;;
46266;SDS011;31998;48.798;15.066;2022-12-07T01:03:14;14.57;;;10.13;;
46266;SDS011;31998;48.798;15.066;2022-12-07T01:05:40;21.10;;;11.17;;
46266;SDS011;31998;48.798;15.066;2022-12-07T01:08:14;18.10;;;10.63;;
46266;SDS011;31998;48.798;15.066;2022-12-07T01:10:40;18.47;;;9.70;;
46266;SDS011;31998;48.798;15.066;2022-12-07T01:13:05;16.83;;;10.20;;
46266;SDS011;31998;48.798;15.066;2022-12-07T01:15:31;20.60;;;11.30;;
46266;SDS011;31998;48.798;15.066;2022-12-07T01:17:56;16.63;;;10.47;;
46266;SDS011;31998;48.798;15.066;2022-12-07T01:20:21;15.23;;;9.13;;
46266;SDS011;31998;48.798;15.066;2022-12-07T01:22:47;17.40;;;11.20;;
46266;SDS011;31998;48.798;15.066;2022-12-07T01:25:12;19.23;;;11.40;;
46266;SDS011;31998;48.798;15.066;2022-12-07T01:27:38;22.63;;;11.40;;
46266;SDS011;31998;48.798;15.066;2022-12-07T01:30:04;22.07;;;11.20;;
46266;SDS011;31998;48.798;15.066;2022-12-07T01:32:31;21.13;;;11.50;;
46266;SDS011;31998;48.798;15.066;2022-12-07T01:34:57;19.37;;;10.70;;
46266;SDS011;31998;48.798;15.066;2022-12-07T01:37:23;17.20;;;9.77;;
46266;SDS011;31998;48.798;15.066;2022-12-07T01:39:49;29.47;;;11.63;;
46266;SDS011;31998;48.798;15.066;2022-12-07T01:42:15;20.93;;;11.50;;
46266;SDS011;31998;48.798;15.066;2022-12-07T01:45:15;15.93;;;11.10;;
46266;SDS011;31998;48.798;15.066;2022-12-07T01:47:52;26.53;;;12.90;;
46266;SDS011;31998;48.798;15.066;2022-12-07T01:50:20;14.50;;;11.00;;
46266;SDS011;31998;48.798;15.066;2022-12-07T01:52:49;29.70;;;12.73;;
46266;SDS011;31998;48.798;15.066;2022-12-07T01:55:16;35.97;;;13.03;;
46266;SDS011;31998;48.798;15.066;2022-12-07T01:57:47;25.60;;;12.77;;
46266;SDS011;31998;48.798;15.066;2022-12-07T02:00:16;38.47;;;14.30;;
46266;SDS011;31998;48.798;15.066;2022-12-07T02:02:50;29.47;;;13.07;;
46266;SDS011;31998;48.798;15.066;2022-12-07T02:05:19;28.87;;;14.50;;
46266;SDS011;31998;48.798;15.066;2022-12-07T02:07:45;37.87;;;15.07;;
46266;SDS011;31998;48.798;15.066;2022-12-07T02:12:38;33.83;;;14.23;;
46266;SDS011;31998;48.798;15.066;2022-12-07T02:15:03;37.53;;;14.20;;
46266;SDS011;31998;48.798;15.066;2022-12-07T02:17:40;26.80;;;13.63;;
46266;SDS011;31998;48.798;15.066;2022-12-07T02:20:13;31.80;;;13.40;;
46266;SDS011;31998;48.798;15.066;2022-12-07T02:23:04;37.43;;;15.37;;
46266;SDS011;31998;48.798;15.066;2022-12-07T02:30:51;43.07;;;15.77;;
46266;SDS011;31998;48.798;15.066;2022-12-07T02:33:24;33.50;;;12.93;;
46266;SDS011;31998;48.798;15.066;2022-12-07T02:38:37;32.60;;;17.13;;
46266;SDS011;31998;48.798;15.066;2022-12-07T02:41:20;34.57;;;15.87;;
46266;SDS011;31998;48.798;15.066;2022-12-07T02:43:52;34.17;;;16.13;;
46266;SDS011;31998;48.798;15.066;2022-12-07T02:46:22;25.33;;;13.23;;
46266;SDS011;31998;48.798;15.066;2022-12-07T02:48:51;42.60;;;15.07;;
46266;SDS011;31998;48.798;15.066;2022-12-07T02:51:18;32.43;;;12.93;;
46266;SDS011;31998;48.798;15.066;2022-12-07T02:53:44;23.50;;;11.57;;
46266;SDS011;31998;48.798;15.066;2022-12-07T02:59:02;21.73;;;12.80;;
46266;SDS011;31998;48.798;15.066;2022-12-07T03:01:59;28.53;;;12.10;;
46266;SDS011;31998;48.798;15.066;2022-12-07T03:18:00;24.83;;;12.93;;
46266;SDS011;31998;48.798;15.066;2022-12-07T03:20:29;22.37;;;11.53;;
46266;SDS011;31998;48.798;15.066;2022-12-07T03:22:56;26.43;;;11.23;;
46266;SDS011;31998;48.798;15.066;2022-12-07T03:25:23;25.10;;;10.70;;
46266;SDS011;31998;48.798;15.066;2022-12-07T03:30:32;25.43;;;11.90;;
46266;SDS011;31998;48.798;15.066;2022-12-07T03:33:07;44.77;;;12.87;;
46266;SDS011;31998;48.798;15.066;2022-12-07T03:35:40;19.50;;;11.60;;
46266;SDS011;31998;48.798;15.066;2022-12-07T03:38:20;23.47;;;11.17;;
46266;SDS011;31998;48.798;15.066;2022-12-07T03:41:33;32.47;;;10.40;;
46266;SDS011;31998;48.798;15.066;2022-12-07T03:43:49;24.33;;;10.00;;
46266;SDS011;31998;48.798;15.066;2022-12-07T03:48:54;21.57;;;9.57;;
46266;SDS011;31998;48.798;15.066;2022-12-07T03:51:28;27.03;;;10.80;;
46266;SDS011;31998;48.798;15.066;2022-12-07T03:54:05;37.50;;;12.17;;
46266;SDS011;31998;48.798;15.066;2022-12-07T03:56:36;26.20;;;10.70;;
46266;SDS011;31998;48.798;15.066;2022-12-07T03:59:02;32.33;;;11.73;;
46266;SDS011;31998;48.798;15.066;2022-12-07T04:01:28;33.83;;;10.30;;
46266;SDS011;31998;48.798;15.066;2022-12-07T04:03:53;29.07;;;11.03;;
46266;SDS011;31998;48.798;15.066;2022-12-07T04:06:19;16.67;;;9.73;;
46266;SDS011;31998;48.798;15.066;2022-12-07T04:08:44;24.30;;;11.10;;
46266;SDS011;31998;48.798;15.066;2022-12-07T04:11:10;16.83;;;10.00;;
46266;SDS011;31998;48.798;15.066;2022-12-07T04:13:35;20.50;;;8.63;;
46266;SDS011;31998;48.798;15.066;2022-12-07T04:16:20;23.97;;;10.20;;
46266;SDS011;31998;48.798;15.066;2022-12-07T04:18:46;17.50;;;9.30;;
46266;SDS011;31998;48.798;15.066;2022-12-07T04:21:11;31.33;;;11.10;;
46266;SDS011;31998;48.798;15.066;2022-12-07T04:23:37;21.13;;;9.43;;
46266;SDS011;31998;48.798;15.066;2022-12-07T04:26:02;16.40;;;9.27;;
46266;SDS011;31998;48.798;15.066;2022-12-07T04:28:27;23.97;;;9.27;;
46266;SDS011;31998;48.798;15.066;2022-12-07T04:30:53;10.87;;;8.50;;
46266;SDS011;31998;48.798;15.066;2022-12-07T04:33:18;15.93;;;9.37;;
46266;SDS011;31998;48.798;15.066;2022-12-07T04:35:43;25.07;;;8.97;;
46266;SDS011;31998;48.798;15.066;2022-12-07T04:38:09;21.40;;;9.13;;
46266;SDS011;31998;48.798;15.066;2022-12-07T04:40:34;17.07;;;9.23;;
46266;SDS011;31998;48.798;15.066;2022-12-07T04:42:59;25.90;;;11.53;;
46266;SDS011;31998;48.798;15.066;2022-12-07T04:45:25;34.50;;;11.57;;
46266;SDS011;31998;48.798;15.066;2022-12-07T04:47:50;19.20;;;10.07;;
46266;SDS011;31998;48.798;15.066;2022-12-07T04:50:16;23.63;;;10.10;;
46266;SDS011;31998;48.798;15.066;2022-12-07T04:52:41;20.53;;;10.07;;
46266;SDS011;31998;48.798;15.066;2022-12-07T04:55:06;17.93;;;9.73;;
46266;SDS011;31998;48.798;15.066;2022-12-07T04:57:32;14.43;;;8.40;;
46266;SDS011;31998;48.798;15.066;2022-12-07T04:59:57;17.00;;;8.50;;
46266;SDS011;31998;48.798;15.066;2022-12-07T05:02:23;15.67;;;8.13;;
46266;SDS011;31998;48.798;15.066;2022-12-07T05:04:48;16.33;;;9.20;;
46266;SDS011;31998;48.798;15.066;2022-12-07T05:07:14;11.67;;;8.10;;
46266;SDS011;31998;48.798;15.066;2022-12-07T05:09:39;12.60;;;7.57;;
46266;SDS011;31998;48.798;15.066;2022-12-07T05:12:04;14.60;;;7.80;;
46266;SDS011;31998;48.798;15.066;2022-12-07T05:14:30;15.40;;;8.50;;
46266;SDS011;31998;48.798;15.066;2022-12-07T05:16:55;12.70;;;8.30;;
46266;SDS011;31998;48.798;15.066;2022-12-07T05:19:20;15.77;;;8.50;;
46266;SDS011;31998;48.798;15.066;2022-12-07T05:21:46;11.93;;;7.87;;
46266;SDS011;31998;48.798;15.066;2022-12-07T05:24:12;20.57;;;9.63;;
46266;SDS011;31998;48.798;15.066;2022-12-07T05:26:39;13.77;;;8.07;;
46266;SDS011;31998;48.798;15.066;2022-12-07T05:29:05;16.93;;;9.80;;
46266;SDS011;31998;48.798;15.066;2022-12-07T05:31:30;14.10;;;9.90;;
46266;SDS011;31998;48.798;15.066;2022-12-07T05:33:56;15.03;;;9.70;;
46266;SDS011;31998;48.798;15.066;2022-12-07T05:36:22;16.27;;;8.60;;
46266;SDS011;31998;48.798;15.066;2022-12-07T05:38:47;18.53;;;9.73;;
46266;SDS011;31998;48.798;15.066;2022-12-07T05:41:14;21.30;;;10.10;;
46266;SDS011;31998;48.798;15.066;2022-12-07T05:44:00;14.80;;;9.77;;
46266;SDS011;31998;48.798;15.066;2022-12-07T05:46:26;19.67;;;10.53;;
46266;SDS011;31998;48.798;15.066;2022-12-07T05:48:51;13.27;;;9.30;;
46266;SDS011;31998;48.798;15.066;2022-12-07T05:51:17;13.40;;;9.13;;
46266;SDS011;31998;48.798;15.066;2022-12-07T05:53:43;17.03;;;10.50;;
46266;SDS011;31998;48.798;15.066;2022-12-07T05:56:09;15.80;;;7.67;;
46266;SDS011;31998;48.798;15.066;2022-12-07T05:58:35;11.77;;;8.47;;
46266;SDS011;31998;48.798;15.066;2022-12-07T06:01:19;13.67;;;7.93;;
46266;SDS011;31998;48.798;15.066;2022-12-07T06:03:44;14.03;;;8.00;;
46266;SDS011;31998;48.798;15.066;2022-12-07T06:06:10;16.33;;;8.57;;
46266;SDS011;31998;48.798;15.066;2022-12-07T06:08:35;15.40;;;10.20;;
46266;SDS011;31998;48.798;15.066;2022-12-07T06:11:02;29.50;;;14.60;;
46266;SDS011;31998;48.798;15.066;2022-12-07T06:13:46;13.03;;;8.37;;
46266;SDS011;31998;48.798;15.066;2022-12-07T06:16:12;21.10;;;11.30;;
46266;SDS011;31998;48.798;15.066;2022-12-07T06:18:37;16.87;;;9.30;;
46266;SDS011;31998;48.798;15.066;2022-12-07T06:21:02;12.63;;;8.40;;
46266;SDS011;31998;48.798;15.066;2022-12-07T06:23:28;13.53;;;9.47;;
46266;SDS011;31998;48.798;15.066;2022-12-07T06:25:53;14.47;;;9.30;;
46266;SDS011;31998;48.798;15.066;2022-12-07T06:28:18;10.70;;;8.10;;
46266;SDS011;31998;48.798;15.066;2022-12-07T06:30:44;7.43;;;6.83;;
46266;SDS011;31998;48.798;15.066;2022-12-07T06:33:09;7.90;;;7.10;;
46266;SDS011;31998;48.798;15.066;2022-12-07T06:35:34;7.03;;;6.33;;
46266;SDS011;31998;48.798;15.066;2022-12-07T06:38:00;7.67;;;6.97;;
46266;SDS011;31998;48.798;15.066;2022-12-07T06:40:25;7.60;;;6.90;;
46266;SDS011;31998;48.798;15.066;2022-12-07T06:42:51;7.40;;;6.37;;
46266;SDS011;31998;48.798;15.066;2022-12-07T06:45:16;8.80;;;7.90;;
46266;SDS011;31998;48.798;15.066;2022-12-07T06:47:41;7.90;;;6.03;;
46266;SDS011;31998;48.798;15.066;2022-12-07T06:50:07;7.23;;;6.60;;
46266;SDS011;31998;48.798;15.066;2022-12-07T06:52:33;10.20;;;6.60;;
46266;SDS011;31998;48.798;15.066;2022-12-07T06:54:58;6.33;;;5.83;;
46266;SDS011;31998;48.798;15.066;2022-12-07T06:57:24;6.13;;;4.77;;
46266;SDS011;31998;48.798;15.066;2022-12-07T06:59:50;7.30;;;6.03;;
46266;SDS011;31998;48.798;15.066;2022-12-07T07:02:15;6.50;;;6.00;;
46266;SDS011;31998;48.798;15.066;2022-12-07T07:04:41;5.93;;;5.53;;
46266;SDS011;31998;48.798;15.066;2022-12-07T07:07:07;6.57;;;5.97;;
46266;SDS011;31998;48.798;15.066;2022-12-07T07:09:32;5.87;;;5.23;;
46266;SDS011;31998;48.798;15.066;2022-12-07T07:11:58;12.63;;;7.33;;
46266;SDS011;31998;48.798;15.066;2022-12-07T07:14:23;5.97;;;5.57;;
46266;SDS011;31998;48.798;15.066;2022-12-07T07:16:48;6.60;;;6.10;;
46266;SDS011;31998;48.798;15.066;2022-12-07T07:19:14;7.60;;;5.90;;
46266;SDS011;31998;48.798;15.066;2022-12-07T07:21:39;5.60;;;4.53;;
46266;SDS011;31998;48.798;15.066;2022-12-07T07:24:05;5.50;;;5.10;;
46266;SDS011;31998;48.798;15.066;2022-12-07T07:26:30;7.70;;;5.90;;
46266;SDS011;31998;48.798;15.066;2022-12-07T07:28:56;6.03;;;5.50;;
46266;SDS011;31998;48.798;15.066;2022-12-07T07:31:21;6.70;;;6.30;;
46266;SDS011;31998;48.798;15.066;2022-12-07T07:33:46;7.27;;;6.57;;
46266;SDS011;31998;48.798;15.066;2022-12-07T07:36:12;7.83;;;6.70;;
46266;SDS011;31998;48.798;15.066;2022-12-07T07:38:37;8.47;;;6.53;;
46266;SDS011;31998;48.798;15.066;2022-12-07T07:41:03;6.40;;;5.97;;
46266;SDS011;31998;48.798;15.066;2022-12-07T07:43:28;7.03;;;6.43;;
46266;SDS011;31998;48.798;15.066;2022-12-07T07:45:54;5.50;;;5.17;;
46266;SDS011;31998;48.798;15.066;2022-12-07T07:48:19;7.47;;;6.63;;
46266;SDS011;31998;48.798;15.066;2022-12-07T07:50:44;7.80;;;7.10;;
46266;SDS011;31998;48.798;15.066;2022-12-07T07:53:10;9.27;;;7.47;;
46266;SDS011;31998;48.798;15.066;2022-12-07T07:55:35;9.13;;;7.60;;
46266;SDS011;31998;48.798;15.066;2022-12-07T07:58:00;8.53;;;7.80;;
46266;SDS011;31998;48.798;15.066;2022-12-07T08:00:26;7.70;;;6.90;;
46266;SDS011;31998;48.798;15.066;2022-12-07T08:02:51;6.40;;;5.90;;
46266;SDS011;31998;48.798;15.066;2022-12-07T08:05:17;8.90;;;7.90;;
46266;SDS011;31998;48.798;15.066;2022-12-07T08:07:42;11.20;;;8.20;;
46266;SDS011;31998;48.798;15.066;2022-12-07T08:10:09;8.20;;;7.60;;
46266;SDS011;31998;48.798;15.066;2022-12-07T08:12:37;7.97;;;6.93;;
46266;SDS011;31998;48.798;15.066;2022-12-07T08:15:23;5.73;;;5.40;;
46266;SDS011;31998;48.798;15.066;2022-12-07T08:17:49;6.20;;;5.70;;
46266;SDS011;31998;48.798;15.066;2022-12-07T08:20:14;6.10;;;5.80;;
46266;SDS011;31998;48.798;15.066;2022-12-07T08:22:40;6.10;;;5.70;;
46266;SDS011;31998;48.798;15.066;2022-12-07T08:25:05;6.30;;;5.90;;
46266;SDS011;31998;48.798;15.066;2022-12-07T08:27:31;5.83;;;5.50;;
46266;SDS011;31998;48.798;15.066;2022-12-07T08:29:56;4.43;;;4.23;;
46266;SDS011;31998;48.798;15.066;2022-12-07T08:32:22;4.17;;;3.97;;
46266;SDS011;31998;48.798;15.066;2022-12-07T08:34:47;5.03;;;4.73;;
46266;SDS011;31998;48.798;15.066;2022-12-07T08:37:12;5.17;;;4.97;;
46266;SDS011;31998;48.798;15.066;2022-12-07T08:39:38;5.20;;;4.80;;
46266;SDS011;31998;48.798;15.066;2022-12-07T08:42:03;4.83;;;4.63;;
46266;SDS011;31998;48.798;15.066;2022-12-07T08:44:28;4.93;;;4.70;;
46266;SDS011;31998;48.798;15.066;2022-12-07T08:46:56;4.40;;;4.20;;
46266;SDS011;31998;48.798;15.066;2022-12-07T08:49:27;4.53;;;4.33;;
46266;SDS011;31998;48.798;15.066;2022-12-07T08:51:57;4.90;;;4.70;;
46266;SDS011;31998;48.798;15.066;2022-12-07T08:54:23;3.97;;;3.87;;
46266;SDS011;31998;48.798;15.066;2022-12-07T08:56:49;4.40;;;4.20;;
46266;SDS011;31998;48.798;15.066;2022-12-07T08:59:17;3.97;;;3.80;;
46266;SDS011;31998;48.798;15.066;2022-12-07T09:01:44;4.07;;;3.87;;
46266;SDS011;31998;48.798;15.066;2022-12-07T09:04:10;3.47;;;3.37;;
46266;SDS011;31998;48.798;15.066;2022-12-07T09:06:36;4.77;;;3.60;;
46266;SDS011;31998;48.798;15.066;2022-12-07T09:09:01;5.03;;;3.90;;
46266;SDS011;31998;48.798;15.066;2022-12-07T09:11:27;2.80;;;2.70;;
46266;SDS011;31998;48.798;15.066;2022-12-07T09:13:54;3.03;;;2.93;;
46266;SDS011;31998;48.798;15.066;2022-12-07T09:16:20;2.20;;;2.20;;
46266;SDS011;31998;48.798;15.066;2022-12-07T09:18:45;2.80;;;2.80;;
46266;SDS011;31998;48.798;15.066;2022-12-07T09:21:10;2.87;;;2.77;;
46266;SDS011;31998;48.798;15.066;2022-12-07T09:23:36;2.80;;;2.70;;
46266;SDS011;31998;48.798;15.066;2022-12-07T09:26:02;2.20;;;2.10;;
46266;SDS011;31998;48.798;15.066;2022-12-07T09:28:29;2.73;;;2.63;;
46266;SDS011;31998;48.798;15.066;2022-12-07T09:30:55;2.80;;;2.70;;
46266;SDS011;31998;48.798;15.066;2022-12-07T09:33:21;2.37;;;2.27;;
46266;SDS011;31998;48.798;15.066;2022-12-07T09:35:47;2.20;;;2.20;;
46266;SDS011;31998;48.798;15.066;2022-12-07T09:38:13;2.30;;;2.20;;
46266;SDS011;31998;48.798;15.066;2022-12-07T09:40:38;1.77;;;1.77;;
46266;SDS011;31998;48.798;15.066;2022-12-07T09:43:04;2.43;;;2.33;;
46266;SDS011;31998;48.798;15.066;2022-12-07T09:45:32;1.70;;;1.70;;
46266;SDS011;31998;48.798;15.066;2022-12-07T09:48:00;1.60;;;1.60;;
46266;SDS011;31998;48.798;15.066;2022-12-07T09:50:28;1.17;;;1.17;;
46266;SDS011;31998;48.798;15.066;2022-12-07T09:52:56;2.90;;;2.70;;
46266;SDS011;31998;48.798;15.066;2022-12-07T09:55:49;7.87;;;6.60;;
46266;SDS011;31998;48.798;15.066;2022-12-07T09:58:19;11.40;;;7.93;;
46266;SDS011;31998;48.798;15.066;2022-12-07T10:00:48;12.83;;;8.43;;
46266;SDS011;31998;48.798;15.066;2022-12-07T10:03:17;3.60;;;3.30;;
46266;SDS011;31998;48.798;15.066;2022-12-07T10:05:44;1.43;;;1.43;;
46266;SDS011;31998;48.798;15.066;2022-12-07T10:08:12;3.73;;;3.53;;
46266;SDS011;31998;48.798;15.066;2022-12-07T10:10:39;2.43;;;2.33;;
46266;SDS011;31998;48.798;15.066;2022-12-07T10:13:47;3.30;;;3.10;;
46266;SDS011;31998;48.798;15.066;2022-12-07T10:16:00;2.30;;;2.20;;
46266;SDS011;31998;48.798;15.066;2022-12-07T10:18:28;1.70;;;1.67;;
46266;SDS011;31998;48.798;15.066;2022-12-07T10:21:05;1.70;;;1.70;;
46266;SDS011;31998;48.798;15.066;2022-12-07T10:23:37;2.43;;;2.33;;
46266;SDS011;31998;48.798;15.066;2022-12-07T10:29:15;2.50;;;2.37;;
46266;SDS011;31998;48.798;15.066;2022-12-07T10:31:45;2.23;;;2.00;;
46266;SDS011;31998;48.798;15.066;2022-12-07T10:34:21;4.73;;;3.57;;
46266;SDS011;31998;48.798;15.066;2022-12-07T10:36:49;4.60;;;4.40;;
46266;SDS011;31998;48.798;15.066;2022-12-07T10:42:01;2.40;;;2.30;;
46266;SDS011;31998;48.798;15.066;2022-12-07T10:44:31;5.77;;;5.10;;
46266;SDS011;31998;48.798;15.066;2022-12-07T11:00:39;4.53;;;4.13;;
46266;SDS011;31998;48.798;15.066;2022-12-07T11:05:51;5.07;;;4.77;;
46266;SDS011;31998;48.798;15.066;2022-12-07T11:16:34;2.80;;;2.70;;
46266;SDS011;31998;48.798;15.066;2022-12-07T11:22:28;2.33;;;2.23;;
46266;SDS011;31998;48.798;15.066;2022-12-07T11:30:23;5.80;;;3.37;;
46266;SDS011;31998;48.798;15.066;2022-12-07T11:33:00;4.03;;;3.73;;
46266;SDS011;31998;48.798;15.066;2022-12-07T11:35:38;3.70;;;3.50;;
46266;SDS011;31998;48.798;15.066;2022-12-07T11:38:17;4.97;;;3.50;;
46266;SDS011;31998;48.798;15.066;2022-12-07T11:41:05;3.43;;;3.13;;
46266;SDS011;31998;48.798;15.066;2022-12-07T11:44:05;8.07;;;4.23;;
46266;SDS011;31998;48.798;15.066;2022-12-07T11:46:39;3.30;;;3.00;;
46266;SDS011;31998;48.798;15.066;2022-12-07T11:49:10;4.63;;;4.33;;
46266;SDS011;31998;48.798;15.066;2022-12-07T11:51:41;3.23;;;3.03;;
46266;SDS011;31998;48.798;15.066;2022-12-07T11:54:12;4.23;;;3.60;;
46266;SDS011;31998;48.798;15.066;2022-12-07T11:56:42;5.00;;;3.40;;
46266;SDS011;31998;48.798;15.066;2022-12-07T12:02:13;4.57;;;3.37;;
46266;SDS011;31998;48.798;15.066;2022-12-07T12:07:06;4.10;;;3.27;;
46266;SDS011;31998;48.798;15.066;2022-12-07T12:09:41;4.50;;;4.30;;
46266;SDS011;31998;48.798;15.066;2022-12-07T12:12:24;6.87;;;5.47;;
46266;SDS011;31998;48.798;15.066;2022-12-07T12:15:34;6.77;;;5.40;;
46266;SDS011;31998;48.798;15.066;2022-12-07T12:18:18;11.60;;;5.43;;
46266;SDS011;31998;48.798;15.066;2022-12-07T12:21:09;4.77;;;3.67;;
46266;SDS011;31998;48.798;15.066;2022-12-07T12:26:07;11.87;;;5.53;;
46266;SDS011;31998;48.798;15.066;2022-12-07T12:28:40;5.40;;;3.40;;
46266;SDS011;31998;48.798;15.066;2022-12-07T12:31:15;4.00;;;3.70;;
46266;SDS011;31998;48.798;15.066;2022-12-07T12:33:50;2.90;;;2.80;;
46266;SDS011;31998;48.798;15.066;2022-12-07T12:38:50;6.07;;;3.77;;
46266;SDS011;31998;48.798;15.066;2022-12-07T12:47:02;5.07;;;4.60;;
46266;SDS011;31998;48.798;15.066;2022-12-07T12:49:33;5.57;;;5.03;;
46266;SDS011;31998;48.798;15.066;2022-12-07T12:54:38;4.93;;;4.70;;
46266;SDS011;31998;48.798;15.066;2022-12-07T12:57:17;4.90;;;4.60;;
46266;SDS011;31998;48.798;15.066;2022-12-07T13:02:26;4.17;;;3.87;;
46266;SDS011;31998;48.798;15.066;2022-12-07T13:04:58;7.40;;;5.63;;
46266;SDS011;31998;48.798;15.066;2022-12-07T13:13:48;8.03;;;6.10;;
46266;SDS011;31998;48.798;15.066;2022-12-07T13:15:50;11.00;;;6.07;;
46266;SDS011;31998;48.798;15.066;2022-12-07T13:20:51;4.87;;;4.67;;
46266;SDS011;31998;48.798;15.066;2022-12-07T13:23:24;12.53;;;6.73;;
46266;SDS011;31998;48.798;15.066;2022-12-07T13:28:43;5.53;;;4.57;;
46266;SDS011;31998;48.798;15.066;2022-12-07T13:31:14;5.10;;;4.80;;
46266;SDS011;31998;48.798;15.066;2022-12-07T13:33:58;4.97;;;4.50;;
46266;SDS011;31998;48.798;15.066;2022-12-07T13:36:27;4.10;;;3.90;;
46266;SDS011;31998;48.798;15.066;2022-12-07T13:39:01;3.30;;;3.20;;
46266;SDS011;31998;48.798;15.066;2022-12-07T13:41:51;4.30;;;4.07;;
46266;SDS011;31998;48.798;15.066;2022-12-07T13:44:18;3.57;;;3.47;;
46266;SDS011;31998;48.798;15.066;2022-12-07T13:47:20;3.90;;;3.70;;
46266;SDS011;31998;48.798;15.066;2022-12-07T13:49:48;3.60;;;3.40;;
46266;SDS011;31998;48.798;15.066;2022-12-07T13:52:34;3.33;;;3.13;;
46266;SDS011;31998;48.798;15.066;2022-12-07T13:55:15;3.30;;;3.20;;
46266;SDS011;31998;48.798;15.066;2022-12-07T13:57:42;4.13;;;3.93;;
46266;SDS011;31998;48.798;15.066;2022-12-07T14:00:15;4.20;;;4.00;;
46266;SDS011;31998;48.798;15.066;2022-12-07T14:02:56;4.30;;;4.00;;
46266;SDS011;31998;48.798;15.066;2022-12-07T14:05:28;4.27;;;3.97;;
46266;SDS011;31998;48.798;15.066;2022-12-07T14:10:52;3.20;;;3.10;;
46266;SDS011;31998;48.798;15.066;2022-12-07T14:13:33;3.60;;;3.40;;
46266;SDS011;31998;48.798;15.066;2022-12-07T14:16:03;3.20;;;3.10;;
46266;SDS011;31998;48.798;15.066;2022-12-07T14:18:43;3.90;;;3.70;;
46266;SDS011;31998;48.798;15.066;2022-12-07T14:23:34;3.20;;;3.10;;
46266;SDS011;31998;48.798;15.066;2022-12-07T14:28:42;4.40;;;3.30;;
46266;SDS011;31998;48.798;15.066;2022-12-07T14:31:18;3.43;;;3.30;;
46266;SDS011;31998;48.798;15.066;2022-12-07T14:33:46;7.33;;;5.57;;
46266;SDS011;31998;48.798;15.066;2022-12-07T14:36:12;10.77;;;7.37;;
46266;SDS011;31998;48.798;15.066;2022-12-07T14:38:38;5.20;;;4.70;;
46266;SDS011;31998;48.798;15.066;2022-12-07T14:41:05;5.80;;;5.40;;
46266;SDS011;31998;48.798;15.066;2022-12-07T14:43:55;6.47;;;5.87;;
46266;SDS011;31998;48.798;15.066;2022-12-07T14:46:21;4.83;;;4.53;;
46266;SDS011;31998;48.798;15.066;2022-12-07T14:48:46;4.50;;;4.20;;
46266;SDS011;31998;48.798;15.066;2022-12-07T14:51:11;5.33;;;4.93;;
46266;SDS011;31998;48.798;15.066;2022-12-07T14:53:39;4.80;;;4.40;;
46266;SDS011;31998;48.798;15.066;2022-12-07T14:56:06;4.60;;;4.27;;
46266;SDS011;31998;48.798;15.066;2022-12-07T14:58:32;5.20;;;4.90;;
46266;SDS011;31998;48.798;15.066;2022-12-07T15:00:57;4.10;;;3.70;;
46266;SDS011;31998;48.798;15.066;2022-12-07T15:03:23;5.27;;;4.87;;
46266;SDS011;31998;48.798;15.066;2022-12-07T15:05:48;8.67;;;6.10;;
46266;SDS011;31998;48.798;15.066;2022-12-07T15:08:14;3.90;;;3.60;;
46266;SDS011;31998;48.798;15.066;2022-12-07T15:10:39;4.10;;;3.87;;
46266;SDS011;31998;48.798;15.066;2022-12-07T15:13:05;9.90;;;7.03;;
46266;SDS011;31998;48.798;15.066;2022-12-07T15:15:50;3.70;;;3.50;;
46266;SDS011;31998;48.798;15.066;2022-12-07T15:18:17;3.80;;;3.60;;
46266;SDS011;31998;48.798;15.066;2022-12-07T15:20:42;4.07;;;3.53;;
46266;SDS011;31998;48.798;15.066;2022-12-07T15:23:09;4.13;;;3.93;;
46266;SDS011;31998;48.798;15.066;2022-12-07T15:25:35;4.87;;;4.50;;
46266;SDS011;31998;48.798;15.066;2022-12-07T15:28:00;4.60;;;4.30;;
46266;SDS011;31998;48.798;15.066;2022-12-07T15:30:26;4.63;;;4.23;;
46266;SDS011;31998;48.798;15.066;2022-12-07T15:32:52;8.50;;;4.30;;
46266;SDS011;31998;48.798;15.066;2022-12-07T15:35:18;5.10;;;4.70;;
46266;SDS011;31998;48.798;15.066;2022-12-07T15:37:44;5.40;;;5.10;;
46266;SDS011;31998;48.798;15.066;2022-12-07T15:40:09;4.93;;;4.73;;
46266;SDS011;31998;48.798;15.066;2022-12-07T15:42:35;4.70;;;4.40;;
46266;SDS011;31998;48.798;15.066;2022-12-07T15:45:02;4.90;;;4.60;;
46266;SDS011;31998;48.798;15.066;2022-12-07T15:47:31;5.37;;;4.97;;
46266;SDS011;31998;48.798;15.066;2022-12-07T15:49:57;4.10;;;3.90;;
46266;SDS011;31998;48.798;15.066;2022-12-07T15:52:22;5.73;;;5.33;;
46266;SDS011;31998;48.798;15.066;2022-12-07T15:54:47;6.23;;;5.73;;
46266;SDS011;31998;48.798;15.066;2022-12-07T15:57:13;7.10;;;6.43;;
46266;SDS011;31998;48.798;15.066;2022-12-07T15:59:39;6.67;;;6.20;;
46266;SDS011;31998;48.798;15.066;2022-12-07T16:02:05;11.37;;;9.07;;
46266;SDS011;31998;48.798;15.066;2022-12-07T16:04:30;7.70;;;6.93;;
46266;SDS011;31998;48.798;15.066;2022-12-07T16:06:56;11.90;;;7.87;;
46266;SDS011;31998;48.798;15.066;2022-12-07T16:09:22;11.80;;;8.00;;
46266;SDS011;31998;48.798;15.066;2022-12-07T16:11:47;10.43;;;6.57;;
46266;SDS011;31998;48.798;15.066;2022-12-07T16:14:15;9.93;;;8.30;;
46266;SDS011;31998;48.798;15.066;2022-12-07T16:16:40;8.53;;;7.73;;
46266;SDS011;31998;48.798;15.066;2022-12-07T16:19:06;6.67;;;6.10;;
46266;SDS011;31998;48.798;15.066;2022-12-07T16:21:33;7.20;;;6.60;;
46266;SDS011;31998;48.798;15.066;2022-12-07T16:23:59;5.97;;;5.57;;
46266;SDS011;31998;48.798;15.066;2022-12-07T16:26:25;7.30;;;6.70;;
46266;SDS011;31998;48.798;15.066;2022-12-07T16:28:51;7.23;;;6.63;;